createdAt,value
2023-05-07T00:01:18.068Z,18.00
2023-05-07T00:03:45.466Z,17.97
2023-05-07T00:06:13.804Z,17.96
2023-05-07T00:08:40.648Z,17.96
2023-05-07T00:11:07.552Z,17.90
2023-05-07T00:13:36.696Z,17.83
2023-05-07T00:16:04.572Z,17.77
2023-05-07T00:18:31.612Z,17.74
2023-05-07T00:20:58.743Z,17.69
2023-05-07T00:23:25.623Z,17.66
2023-05-07T00:25:52.553Z,17.66
2023-05-07T00:28:19.421Z,17.63
2023-05-07T00:30:46.236Z,17.60
2023-05-07T00:33:13.038Z,17.47
2023-05-07T00:35:39.939Z,17.32
2023-05-07T00:38:06.838Z,17.22
2023-05-07T00:40:33.825Z,17.21
2023-05-07T00:43:01.132Z,17.24
2023-05-07T00:45:28.749Z,17.33
2023-05-07T00:47:57.071Z,17.42
2023-05-07T00:50:24.091Z,17.49
2023-05-07T00:52:50.939Z,17.56
2023-05-07T00:55:17.781Z,17.62
2023-05-07T00:57:44.805Z,17.67
2023-05-07T01:00:14.102Z,17.73
2023-05-07T01:02:41.698Z,17.78
2023-05-07T01:05:10.636Z,17.82
2023-05-07T01:07:38.355Z,17.86
2023-05-07T01:10:06.893Z,17.90
2023-05-07T01:12:33.902Z,17.93
2023-05-07T01:15:00.916Z,17.95
2023-05-07T01:17:27.817Z,17.98
2023-05-07T01:19:55.644Z,18.01
2023-05-07T01:22:33.625Z,18.04
2023-05-07T01:25:02.752Z,18.06
2023-05-07T01:27:30.194Z,18.07
2023-05-07T01:29:57.095Z,18.09
2023-05-07T01:32:49.404Z,18.12
2023-05-07T01:35:21.325Z,18.15
2023-05-07T01:37:48.689Z,18.18
2023-05-07T01:40:15.556Z,18.18
2023-05-07T01:42:43.294Z,18.20
2023-05-07T01:45:11.080Z,18.23
2023-05-07T01:47:38.399Z,18.27
2023-05-07T01:50:07.441Z,18.29
2023-05-07T01:52:34.668Z,18.29
2023-05-07T01:55:01.535Z,18.28
2023-05-07T01:57:28.650Z,18.27
2023-05-07T01:59:55.959Z,18.26
2023-05-07T02:02:23.141Z,18.19
2023-05-07T02:04:51.282Z,18.02
2023-05-07T02:07:18.926Z,17.90
2023-05-07T02:09:46.046Z,17.84
2023-05-07T02:12:13.153Z,17.80
2023-05-07T02:14:40.039Z,17.80
2023-05-07T02:17:07.145Z,17.81
2023-05-07T02:19:34.025Z,17.84
2023-05-07T02:22:02.240Z,17.88
2023-05-07T02:24:31.339Z,17.92
2023-05-07T02:26:58.416Z,17.95
2023-05-07T02:29:26.410Z,17.99
2023-05-07T02:31:54.230Z,18.01
2023-05-07T02:34:21.212Z,18.04
2023-05-07T02:36:48.223Z,18.07
2023-05-07T02:39:18.012Z,18.07
2023-05-07T02:41:44.868Z,18.05
2023-05-07T02:44:12.016Z,18.06
2023-05-07T02:46:39.284Z,18.08
2023-05-07T02:49:09.062Z,18.12
2023-05-07T02:51:36.167Z,18.17
2023-05-07T02:54:03.897Z,18.20
2023-05-07T02:56:31.554Z,18.22
2023-05-07T02:58:58.960Z,18.24
2023-05-07T03:01:27.805Z,18.25
2023-05-07T03:04:02.434Z,18.25
2023-05-07T03:06:29.386Z,18.26
2023-05-07T03:08:56.238Z,18.21
2023-05-07T03:11:23.131Z,18.12
2023-05-07T03:13:50.726Z,18.03
2023-05-07T03:16:18.356Z,17.84
2023-05-07T03:18:45.468Z,17.61
2023-05-07T03:21:12.458Z,17.40
2023-05-07T03:23:39.945Z,17.18
2023-05-07T03:26:06.742Z,16.94
2023-05-07T03:28:33.804Z,16.71
2023-05-07T03:31:02.526Z,16.54
2023-05-07T03:33:30.526Z,16.33
2023-05-07T03:35:57.522Z,16.16
2023-05-07T03:38:25.432Z,15.98
2023-05-07T03:40:52.353Z,15.80
2023-05-07T03:43:19.247Z,15.68
2023-05-07T03:45:50.470Z,15.56
2023-05-07T03:48:21.376Z,15.43
2023-05-07T03:50:49.003Z,15.33
2023-05-07T03:53:16.424Z,15.25
2023-05-07T03:55:43.414Z,15.20
2023-05-07T03:58:10.408Z,15.12
2023-05-07T04:00:39.598Z,15.04
2023-05-07T04:03:14.130Z,15.01
2023-05-07T04:05:41.389Z,14.99
2023-05-07T04:08:08.314Z,14.97
2023-05-07T04:10:40.442Z,14.98
2023-05-07T04:13:10.568Z,15.02
2023-05-07T04:15:37.641Z,15.04
2023-05-07T04:18:07.797Z,15.08
2023-05-07T04:20:37.408Z,15.11
2023-05-07T04:23:05.434Z,15.14
2023-05-07T04:25:32.845Z,15.14
2023-05-07T04:28:07.154Z,15.17
2023-05-07T04:30:34.328Z,15.19
2023-05-07T04:33:03.176Z,15.20
2023-05-07T04:35:30.598Z,15.18
2023-05-07T04:37:58.624Z,15.15
2023-05-07T04:40:25.747Z,15.10
2023-05-07T04:42:54.170Z,15.06
2023-05-07T04:45:22.102Z,15.04
2023-05-07T04:47:49.018Z,15.08
2023-05-07T04:50:16.101Z,15.16
2023-05-07T04:52:43.451Z,15.20
2023-05-07T04:55:11.043Z,15.23
2023-05-07T04:57:41.866Z,15.27
2023-05-07T05:00:11.140Z,15.32
2023-05-07T05:02:38.659Z,15.36
2023-05-07T05:05:07.004Z,15.39
2023-05-07T05:07:33.972Z,15.42
2023-05-07T05:10:00.914Z,15.46
2023-05-07T05:12:27.861Z,15.48
2023-05-07T05:14:55.294Z,15.46
2023-05-07T05:17:22.205Z,15.37
2023-05-07T05:19:49.094Z,15.32
2023-05-07T05:22:16.389Z,15.38
2023-05-07T05:24:43.426Z,15.43
2023-05-07T05:27:10.302Z,15.47
2023-05-07T05:29:37.401Z,15.44
2023-05-07T05:32:04.522Z,15.41
2023-05-07T05:34:31.730Z,15.43
2023-05-07T05:37:00.318Z,15.48
2023-05-07T05:39:27.368Z,15.45
2023-05-07T05:41:54.267Z,15.38
2023-05-07T05:44:21.750Z,15.37
2023-05-07T05:46:50.702Z,15.39
2023-05-07T05:49:17.782Z,15.45
2023-05-07T05:51:44.929Z,15.40
2023-05-07T05:54:12.468Z,15.35
2023-05-07T05:56:39.370Z,15.33
2023-05-07T05:59:06.464Z,15.35
2023-05-07T06:01:34.193Z,15.37
2023-05-07T06:04:02.339Z,15.39
2023-05-07T06:06:30.159Z,15.41
2023-05-07T06:08:57.256Z,15.40
2023-05-07T06:11:31.644Z,15.42
2023-05-07T06:13:58.655Z,15.45
2023-05-07T06:16:26.749Z,15.53
2023-05-07T06:18:53.606Z,15.54
2023-05-07T06:21:20.624Z,15.51
2023-05-07T06:23:48.415Z,15.49
2023-05-07T06:26:15.418Z,15.48
2023-05-07T06:28:43.780Z,15.52
2023-05-07T06:31:24.204Z,15.54
2023-05-07T06:33:58.014Z,15.52
2023-05-07T06:36:28.297Z,15.55
2023-05-07T06:38:56.724Z,15.55
2023-05-07T06:41:23.590Z,15.56
2023-05-07T06:43:50.550Z,15.56
2023-05-07T06:46:28.357Z,15.61
2023-05-07T06:48:55.418Z,15.60
2023-05-07T06:51:22.254Z,15.66
2023-05-07T06:53:49.612Z,15.78
2023-05-07T06:56:16.432Z,15.71
2023-05-07T06:58:43.662Z,15.62
2023-05-07T07:01:10.986Z,15.58
2023-05-07T07:03:38.196Z,15.61
2023-05-07T07:06:05.582Z,15.65
2023-05-07T07:08:34.552Z,15.63
2023-05-07T07:11:02.142Z,15.60
2023-05-07T07:13:32.498Z,15.60
2023-05-07T07:15:59.792Z,15.64
2023-05-07T07:18:26.861Z,15.76
2023-05-07T07:20:54.495Z,15.86
2023-05-07T07:23:21.595Z,15.96
2023-05-07T07:25:48.833Z,16.04
2023-05-07T07:28:15.700Z,16.12
2023-05-07T07:30:42.798Z,16.18
2023-05-07T07:33:10.759Z,16.20
2023-05-07T07:35:38.534Z,16.12
2023-05-07T07:38:06.403Z,15.97
2023-05-07T07:40:35.498Z,15.86
2023-05-07T07:43:02.966Z,15.90
2023-05-07T07:45:30.287Z,15.88
2023-05-07T07:47:57.206Z,15.80
2023-05-07T07:50:36.074Z,15.82
2023-05-07T07:53:10.502Z,15.89
2023-05-07T07:55:41.261Z,16.01
2023-05-07T07:58:08.335Z,16.13
2023-05-07T08:00:35.451Z,16.15
2023-05-07T08:03:04.324Z,16.28
2023-05-07T08:05:34.056Z,16.39
2023-05-07T08:08:00.939Z,16.44
2023-05-07T08:10:30.931Z,16.47
2023-05-07T08:13:05.137Z,16.47
2023-05-07T08:15:32.459Z,16.52
2023-05-07T08:18:01.389Z,16.58
2023-05-07T08:20:29.819Z,16.63
2023-05-07T08:22:57.528Z,16.59
2023-05-07T08:25:24.895Z,16.57
2023-05-07T08:27:51.963Z,16.68
2023-05-07T08:30:18.978Z,16.75
2023-05-07T08:32:46.098Z,16.75
2023-05-07T08:35:13.084Z,16.75
2023-05-07T08:37:40.080Z,16.76
2023-05-07T08:40:10.220Z,16.73
2023-05-07T08:42:39.067Z,16.47
2023-05-07T08:45:10.606Z,16.32
2023-05-07T08:47:47.595Z,16.30
2023-05-07T08:50:15.646Z,16.21
2023-05-07T08:52:43.096Z,16.16
2023-05-07T08:55:11.533Z,16.29
2023-05-07T08:57:40.147Z,16.32
2023-05-07T09:00:09.360Z,16.34
2023-05-07T09:02:38.097Z,16.33
2023-05-07T09:05:06.545Z,16.33
2023-05-07T09:07:33.993Z,16.29
2023-05-07T09:10:05.583Z,16.34
2023-05-07T09:12:33.235Z,16.43
2023-05-07T09:15:01.210Z,16.56
2023-05-07T09:17:29.508Z,16.62
2023-05-07T09:19:56.632Z,16.53
2023-05-07T09:22:23.539Z,16.46
2023-05-07T09:24:56.057Z,16.42
2023-05-07T09:27:26.270Z,16.44
2023-05-07T09:29:53.925Z,16.44
2023-05-07T09:32:20.955Z,16.34
2023-05-07T09:34:48.533Z,16.36
2023-05-07T09:37:15.836Z,16.39
2023-05-07T09:39:47.637Z,16.48
2023-05-07T09:42:18.328Z,16.55
2023-05-07T09:44:46.101Z,16.54
2023-05-07T09:47:19.661Z,16.52
2023-05-07T09:49:49.136Z,16.53
2023-05-07T09:52:18.903Z,16.55
2023-05-07T09:54:49.526Z,16.49
2023-05-07T09:57:17.385Z,16.51
2023-05-07T09:59:46.113Z,16.56
2023-05-07T10:02:15.485Z,16.52
2023-05-07T10:04:48.357Z,16.47
2023-05-07T10:07:17.524Z,16.43
2023-05-07T10:09:48.845Z,16.47
2023-05-07T10:12:23.463Z,16.49
2023-05-07T10:14:50.988Z,16.54
2023-05-07T10:17:24.703Z,16.65
2023-05-07T10:19:52.215Z,16.84
2023-05-07T10:22:19.276Z,17.00
2023-05-07T10:24:46.520Z,17.16
2023-05-07T10:27:16.003Z,17.18
2023-05-07T10:30:07.842Z,17.11
2023-05-07T10:32:47.209Z,17.10
2023-05-07T10:35:24.357Z,16.95
2023-05-07T10:37:51.870Z,16.89
2023-05-07T10:40:21.589Z,16.91
2023-05-07T10:43:15.344Z,16.92
2023-05-07T10:46:19.666Z,17.03
2023-05-07T10:49:04.546Z,17.18
2023-05-07T10:52:17.491Z,17.29
2023-05-07T10:55:21.131Z,17.25
2023-05-07T10:57:57.552Z,17.33
2023-05-07T11:03:01.510Z,17.43
2023-05-07T11:05:43.081Z,17.48
2023-05-07T11:08:24.355Z,17.52
2023-05-07T11:10:59.750Z,17.37
2023-05-07T11:13:46.236Z,17.27
2023-05-07T11:16:34.131Z,17.30
2023-05-07T11:19:09.678Z,17.42
2023-05-07T11:21:42.591Z,17.53
2023-05-07T11:24:18.633Z,17.62
2023-05-07T11:26:52.741Z,17.67
2023-05-07T11:29:23.968Z,17.62
2023-05-07T11:31:56.433Z,17.63
2023-05-07T11:34:26.236Z,17.68
2023-05-07T11:36:54.214Z,17.60
2023-05-07T11:39:32.579Z,17.46
2023-05-07T11:42:03.326Z,17.46
2023-05-07T11:44:44.290Z,17.55
2023-05-07T11:47:13.789Z,17.64
2023-05-07T11:49:41.832Z,17.73
2023-05-07T11:52:09.033Z,17.74
2023-05-07T11:54:38.055Z,17.68
2023-05-07T11:57:05.392Z,17.67
2023-05-07T11:59:39.824Z,17.67
2023-05-07T12:02:07.686Z,17.66
2023-05-07T12:04:34.756Z,17.74
2023-05-07T12:07:03.505Z,17.86
2023-05-07T12:09:30.932Z,17.96
2023-05-07T12:14:16.972Z,16.90
2023-05-07T12:16:44.084Z,17.90
2023-05-07T12:19:15.731Z,17.99
2023-05-07T12:21:43.072Z,17.87
2023-05-07T12:24:10.088Z,17.72
2023-05-07T12:26:41.836Z,17.73
2023-05-07T12:29:46.628Z,17.68
2023-05-07T12:32:15.399Z,17.69
2023-05-07T12:34:45.292Z,17.80
2023-05-07T12:37:13.273Z,17.93
2023-05-07T12:39:49.440Z,18.02
2023-05-07T12:42:17.063Z,18.09
2023-05-07T12:44:46.397Z,18.11
2023-05-07T12:47:13.419Z,18.15
2023-05-07T12:49:41.431Z,18.22
2023-05-07T12:52:08.295Z,18.28
2023-05-07T12:54:37.599Z,18.35
2023-05-07T12:57:08.650Z,18.38
2023-05-07T12:59:42.076Z,18.35
2023-05-07T13:02:09.336Z,18.34
2023-05-07T13:04:37.814Z,18.37
2023-05-07T13:07:05.010Z,18.43
2023-05-07T13:09:31.820Z,18.53
2023-05-07T13:12:01.888Z,18.51
2023-05-07T13:14:29.196Z,18.41
2023-05-07T13:16:56.362Z,18.37
2023-05-07T13:19:23.281Z,18.29
2023-05-07T13:21:50.332Z,18.17
2023-05-07T13:24:17.068Z,18.16
2023-05-07T13:26:46.018Z,18.23
2023-05-07T13:29:13.417Z,18.29
2023-05-07T13:31:43.294Z,18.31
2023-05-07T13:34:11.079Z,18.18
2023-05-07T13:36:40.150Z,18.10
2023-05-07T13:39:07.076Z,18.07
2023-05-07T13:41:34.191Z,18.12
2023-05-07T13:44:01.038Z,18.20
2023-05-07T13:46:28.093Z,18.22
2023-05-07T13:48:55.133Z,18.21
2023-05-07T13:51:22.461Z,18.19
2023-05-07T13:53:49.330Z,18.21
2023-05-07T13:56:16.290Z,18.23
2023-05-07T13:58:56.432Z,18.27
2023-05-07T14:01:26.809Z,18.30
2023-05-07T14:03:54.094Z,18.33
2023-05-07T14:06:22.332Z,18.35
2023-05-07T14:08:49.556Z,18.38
2023-05-07T14:11:16.597Z,18.43
2023-05-07T14:13:46.015Z,18.43
2023-05-07T14:16:12.938Z,18.45
2023-05-07T14:18:39.902Z,18.53
2023-05-07T14:21:07.557Z,18.61
2023-05-07T14:23:34.740Z,18.64
2023-05-07T14:26:01.668Z,18.65
2023-05-07T14:28:28.918Z,18.64
2023-05-07T14:30:55.893Z,18.64
2023-05-07T14:33:24.062Z,18.59
2023-05-07T14:35:51.469Z,18.53
2023-05-07T14:38:18.513Z,18.49
2023-05-07T14:40:45.549Z,18.48
2023-05-07T14:43:12.535Z,18.50
2023-05-07T14:45:40.129Z,18.56
2023-05-07T14:48:06.978Z,18.57
2023-05-07T14:50:33.998Z,18.60
2023-05-07T14:53:01.355Z,18.65
2023-05-07T14:55:28.580Z,18.70
2023-05-07T14:57:56.273Z,18.75
2023-05-07T15:00:23.439Z,18.80
2023-05-07T15:02:50.540Z,18.87
2023-05-07T15:05:19.647Z,18.87
2023-05-07T15:07:47.383Z,18.87
2023-05-07T15:10:14.792Z,18.90
2023-05-07T15:12:42.521Z,18.94
2023-05-07T15:15:10.466Z,18.94
2023-05-07T15:17:37.449Z,18.97
2023-05-07T15:20:05.573Z,19.01
2023-05-07T15:22:32.918Z,18.99
2023-05-07T15:24:59.869Z,18.97
2023-05-07T15:27:27.203Z,18.95
2023-05-07T15:29:54.180Z,18.99
2023-05-07T15:32:21.124Z,19.00
2023-05-07T15:34:47.977Z,19.06
2023-05-07T15:37:15.010Z,19.14
2023-05-07T15:39:41.931Z,19.25
2023-05-07T15:42:08.918Z,19.33
2023-05-07T15:44:36.143Z,19.38
2023-05-07T15:47:03.188Z,19.40
2023-05-07T15:49:30.542Z,19.43
2023-05-07T15:51:57.696Z,19.47
2023-05-07T15:54:24.969Z,19.53
2023-05-07T15:56:52.007Z,19.62
2023-05-07T15:59:18.868Z,19.67
2023-05-07T16:01:45.833Z,19.68
2023-05-07T16:04:12.638Z,19.70
2023-05-07T16:06:39.505Z,19.70
2023-05-07T16:09:06.164Z,19.70
2023-05-07T16:11:33.377Z,19.69
2023-05-07T16:14:03.030Z,19.66
2023-05-07T16:16:33.019Z,19.62
2023-05-07T16:18:59.676Z,19.59
2023-05-07T16:21:26.811Z,19.52
2023-05-07T16:23:53.864Z,19.49
2023-05-07T16:26:20.544Z,19.44
2023-05-07T16:28:47.461Z,19.38
2023-05-07T16:31:14.370Z,19.30
2023-05-07T16:33:41.089Z,19.23
2023-05-07T16:36:08.137Z,19.16
2023-05-07T16:38:34.931Z,19.09
2023-05-07T16:41:01.735Z,19.04
2023-05-07T16:43:28.603Z,19.00
2023-05-07T16:45:55.493Z,18.99
2023-05-07T16:48:22.746Z,18.93
2023-05-07T16:50:49.417Z,18.86
2023-05-07T16:53:16.420Z,18.82
2023-05-07T16:55:43.251Z,18.80
2023-05-07T16:58:10.748Z,18.79
2023-05-07T17:00:48.938Z,18.77
2023-05-07T17:03:16.786Z,18.77
2023-05-07T17:05:44.253Z,18.76
2023-05-07T17:08:12.853Z,18.77
2023-05-07T17:10:39.792Z,18.76
2023-05-07T17:13:07.088Z,18.75
2023-05-07T17:15:33.993Z,18.76
2023-05-07T17:18:00.983Z,18.77
2023-05-07T17:20:28.157Z,18.78
2023-05-07T17:22:55.114Z,18.78
2023-05-07T17:25:22.677Z,18.75
2023-05-07T17:27:49.943Z,18.69
2023-05-07T17:30:16.712Z,18.65
2023-05-07T17:32:44.005Z,18.63
2023-05-07T17:35:10.796Z,18.58
2023-05-07T17:37:37.750Z,18.56
2023-05-07T17:40:05.078Z,18.52
2023-05-07T17:42:32.169Z,18.51
2023-05-07T17:44:58.815Z,18.53
2023-05-07T17:47:25.544Z,18.51
2023-05-07T17:49:52.244Z,18.45
2023-05-07T17:52:19.015Z,18.41
2023-05-07T17:54:46.121Z,18.41
2023-05-07T17:57:12.978Z,18.39
2023-05-07T17:59:39.784Z,18.38
2023-05-07T18:02:06.504Z,18.37
2023-05-07T18:04:33.316Z,18.36
2023-05-07T18:07:00.564Z,18.35
2023-05-07T18:09:27.301Z,18.33
2023-05-07T18:11:54.037Z,18.30
2023-05-07T18:14:23.535Z,18.29
2023-05-07T18:16:50.352Z,18.29
2023-05-07T18:19:17.354Z,18.29
2023-05-07T18:21:44.099Z,18.25
2023-05-07T18:24:10.917Z,18.19
2023-05-07T18:26:37.696Z,18.19
2023-05-07T18:29:04.405Z,18.19
2023-05-07T18:31:31.427Z,18.20
2023-05-07T18:33:58.304Z,18.21
2023-05-07T18:36:26.304Z,18.20
2023-05-07T18:38:53.689Z,18.20
2023-05-07T18:41:21.064Z,18.20
2023-05-07T18:43:47.890Z,18.20
2023-05-07T18:46:14.705Z,18.20
2023-05-07T18:48:41.498Z,18.20
2023-05-07T18:51:11.856Z,18.20
2023-05-07T18:58:21.995Z,18.13
2023-05-07T19:00:51.326Z,18.12
2023-05-07T19:03:18.192Z,18.12
2023-05-07T19:05:45.260Z,18.13
2023-05-07T19:08:12.081Z,18.14
2023-05-07T19:10:39.867Z,18.12
2023-05-07T19:13:07.039Z,18.10
2023-05-07T19:15:33.989Z,18.10
2023-05-07T19:18:00.913Z,18.09
2023-05-07T19:20:28.398Z,18.08
2023-05-07T19:22:55.464Z,18.07
2023-05-07T19:25:22.300Z,18.07
2023-05-07T19:27:50.246Z,18.07
2023-05-07T19:30:17.202Z,18.04
2023-05-07T19:32:43.943Z,18.03
2023-05-07T19:35:10.777Z,18.03
2023-05-07T19:37:38.590Z,18.00
2023-05-07T19:40:06.387Z,17.95
2023-05-07T19:42:34.110Z,17.93
2023-05-07T19:45:01.260Z,17.89
2023-05-07T19:47:28.029Z,17.87
2023-05-07T19:49:54.628Z,17.89
2023-05-07T19:52:21.732Z,17.88
2023-05-07T19:54:48.461Z,17.87
2023-05-07T19:57:16.903Z,17.87
2023-05-07T19:59:43.669Z,17.85
2023-05-07T20:02:11.419Z,17.87
2023-05-07T20:04:38.456Z,17.88
2023-05-07T20:07:05.543Z,17.88
2023-05-07T20:09:33.044Z,17.88
2023-05-07T20:11:59.763Z,17.90
2023-05-07T20:14:26.839Z,17.90
2023-05-07T20:16:53.625Z,17.86
2023-05-07T20:19:20.349Z,17.84
2023-05-07T20:21:47.185Z,17.83
2023-05-07T20:24:13.970Z,17.84
2023-05-07T20:26:40.791Z,17.88
2023-05-07T20:29:08.260Z,17.90
2023-05-07T20:31:35.126Z,17.84
2023-05-07T20:38:51.845Z,17.81
2023-05-07T20:41:20.199Z,17.77
2023-05-07T20:43:47.952Z,17.80
2023-05-07T20:46:14.682Z,17.81
2023-05-07T20:48:41.754Z,17.84
2023-05-07T20:51:12.880Z,17.85
2023-05-07T20:53:40.137Z,17.83
2023-05-07T20:56:07.013Z,17.78
2023-05-07T20:58:33.914Z,17.74
2023-05-07T21:01:00.862Z,17.74
2023-05-07T21:03:27.757Z,17.75
2023-05-07T21:05:55.759Z,17.77
2023-05-07T21:08:22.723Z,17.76
2023-05-07T21:10:50.404Z,17.78
2023-05-07T21:13:18.106Z,17.78
2023-05-07T21:15:45.440Z,17.78
2023-05-07T21:18:12.642Z,17.75
2023-05-07T21:20:39.546Z,17.72
2023-05-07T21:23:06.876Z,17.69
2023-05-07T21:25:38.084Z,17.65
2023-05-07T21:32:49.313Z,17.53
2023-05-07T21:35:16.345Z,17.48
2023-05-07T21:37:43.403Z,17.44
2023-05-07T21:40:11.023Z,17.43
2023-05-07T21:42:38.106Z,17.43
2023-05-07T21:45:05.718Z,17.45
2023-05-07T21:47:32.911Z,17.43
2023-05-07T21:50:00.607Z,17.41
2023-05-07T21:52:27.433Z,17.40
2023-05-07T21:54:54.245Z,17.37
2023-05-07T21:57:21.501Z,17.32
2023-05-07T21:59:49.432Z,17.27
2023-05-07T22:07:05.800Z,17.19
2023-05-07T22:09:33.448Z,17.20
2023-05-07T22:12:00.597Z,17.18
2023-05-07T22:14:27.516Z,17.17
2023-05-07T22:16:54.395Z,17.17
2023-05-07T22:19:23.414Z,17.19
2023-05-07T22:21:53.313Z,17.16
2023-05-07T22:24:22.514Z,17.10
2023-05-07T22:26:51.850Z,17.09
2023-05-07T22:29:23.340Z,17.11
2023-05-07T22:31:53.385Z,17.12
2023-05-07T22:34:23.379Z,17.12
2023-05-07T22:36:53.394Z,17.13
2023-05-07T22:39:22.851Z,17.09
2023-05-07T22:41:52.894Z,17.09
2023-05-07T22:44:22.069Z,17.12
2023-05-07T22:46:52.362Z,17.15
2023-05-07T22:49:21.487Z,17.12
2023-05-07T22:51:51.447Z,17.09
2023-05-07T22:54:20.540Z,17.03
2023-05-07T22:56:49.440Z,16.96
2023-05-07T22:59:19.852Z,16.91
2023-05-07T23:01:48.237Z,16.90
2023-05-07T23:04:17.726Z,16.91
2023-05-07T23:06:46.543Z,16.93
2023-05-07T23:09:15.440Z,16.95
2023-05-07T23:11:45.455Z,16.98
2023-05-07T23:14:13.963Z,17.00
2023-05-07T23:16:43.445Z,16.99
2023-05-07T23:26:47.823Z,17.13
2023-05-07T23:29:14.667Z,17.14
2023-05-07T23:31:41.604Z,17.13
2023-05-07T23:34:08.526Z,17.12
2023-05-07T23:36:35.382Z,17.11
2023-05-07T23:39:02.553Z,17.09
2023-05-07T23:41:29.325Z,17.05
2023-05-07T23:43:56.231Z,17.01
2023-05-07T23:46:23.205Z,16.99
2023-05-07T23:48:50.098Z,16.99
2023-05-07T23:51:17.014Z,17.00
2023-05-07T23:53:43.993Z,16.99
2023-05-07T23:56:11.419Z,16.98
2023-05-07T23:58:38.336Z,16.93
